• Join FlightAware (Why Join?)
  • Login
  • US Flag 
11:51PM EDT


 

Airport Tracker/Info


-or-


 

Live Flight TrackerFlight Track Log ✈ N865JM ✈ 12-Oct-2013 ✈ KPBI - KSHV

Flight Track Log - Related Links

Times and Time Zones

All times are in EDT time to prevent confusion due to time zone crossing. See the N865JM flight status page for this flight to view local times or setup timezone preferences in your user account.

Time Position Orientation Groundspeed Altitude Reporting Facility
EDT Latitude Longitude Course Direction KTS MPH feet Rate Location/Type
11:56AM 26.7783 -79.9700 297° West 267 307 6,700  Level Miami Center
11:57AM 26.8297 -80.0064 328° Northwest 261 300 9,400 2,460 Climbing Miami Center
11:58AM 26.8403 -80.0975 277° West 260 299 11,700 2,580 Climbing Miami Center
11:59AM 26.8503 -80.2094 276° West 319 367 14,600 2,820 Climbing Miami Center
12:00PM 26.9741 -80.6858 297° West  Level Estimated
12:00PM 26.8647 -80.3100 279° West 336 387 17,400  Level Miami Center
12:01PM 26.9153 -80.3792 309° West 322 371 19,600 2,100 Climbing Miami Center
12:02PM 26.9844 -80.4442 320° Northwest 315 362 21,600 1,980 Climbing Miami Center
12:03PM 27.0558 -80.5117 320° Northwest 322 371 23,600 1,740 Climbing Miami Center
12:04PM 27.1108 -80.5669 318° Northwest 328 377 25,100 1,680 Climbing Miami Center
12:05PM 27.1986 -80.6514 319° Northwest 333 383 27,000 1,500 Climbing Miami Center
12:06PM 27.2739 -80.7239 319° Northwest 340 391 28,100 1,080 Climbing Miami Center
12:07PM 27.3553 -80.7992 321° Northwest 360 414 29,200 1,020 Climbing Miami Center
12:08PM 27.4325 -80.8792 317° Northwest 371 427 30,200 960 Climbing Miami Center
12:09PM 27.5139 -80.9569 320° Northwest 378 435 31,200 960 Climbing Miami Center
12:10PM 27.5931 -81.0347 319° Northwest 378 435 32,200 1,020 Climbing Miami Center
12:11PM 27.6742 -81.1150 319° Northwest 378 435 33,300 1,020 Climbing Miami Center
12:12PM 27.7553 -81.1953 319° Northwest 383 441 34,300 1,020 Climbing Miami Center
12:13PM 27.8364 -81.2711 320° Northwest 383 441 35,400 540 Climbing Miami Center
12:15PM 27.9850 -81.4189 319° Northwest 374 430 36,000 180 Climbing Jacksonville Center
12:16PM 28.0736 -81.5025 320° Northwest 374 430 36,000  Level Jacksonville Center
12:17PM 28.1536 -81.5836 318° Northwest 374 430 36,000  Level Jacksonville Center
12:18PM 28.2358 -81.6628 320° Northwest 379 436 36,000  Level Jacksonville Center
12:19PM 28.3181 -81.7467 318° Northwest 384 442 36,000  Level Jacksonville Center
12:20PM 28.3981 -81.8258 319° Northwest 389 448 36,000  Level Jacksonville Center
12:21PM 28.4717 -81.9008 318° Northwest 396 456 36,000  Level Jacksonville Center
12:22PM 28.5453 -81.9944 312° West 391 450 36,000  Level Jacksonville Center
12:23PM 28.5878 -82.1075 293° West 385 443 36,000  Level Jacksonville Center
12:24PM 28.6322 -82.2231 294° West 390 449 36,000  Level Jacksonville Center
12:25PM 28.6747 -82.3389 293° West 395 455 36,000  Level Jacksonville Center
12:26PM 28.7189 -82.4664 292° West 395 455 36,000  Level Jacksonville Center
12:27PM 28.7589 -82.5822 292° West 395 455 36,000  Level Jacksonville Center
12:28PM 28.8031 -82.6958 294° West 390 449 36,000  Level Jacksonville Center
12:29PM 28.8447 -82.8119 292° West 390 449 36,000  Level Jacksonville Center
12:30PM 28.8908 -82.9281 294° West 390 449 36,000  Level Jacksonville Center
12:31PM 28.9325 -83.0419 293° West 390 449 36,000  Level Jacksonville Center
12:32PM 28.9781 -83.1583 294° West 390 449 36,000  Level Jacksonville Center
12:33PM 29.0156 -83.2606 293° West 395 455 36,000  Level Jacksonville Center
12:34PM 29.0589 -83.3772 293° West 395 455 36,000  Level Jacksonville Center
12:35PM 29.1022 -83.4939 293° West 395 455 36,000  Level Jacksonville Center
12:36PM 29.1475 -83.6106 294° West 395 455 36,000  Level Jacksonville Center
12:37PM 29.1908 -83.7228 294° West 395 455 36,000  Level Jacksonville Center
12:38PM 29.2339 -83.8397 293° West 395 455 36,000  Level Jacksonville Center
12:39PM 29.2767 -83.9567 293° West 395 455 36,000  Level Jacksonville Center
12:40PM 29.3194 -84.0717 293° West 395 455 36,000  Level Jacksonville Center
12:41PM 29.3622 -84.1889 293° West 395 455 36,000  Level Jacksonville Center
12:42PM 29.4028 -84.3039 292° West 395 455 36,000  Level Jacksonville Center
12:43PM 29.4453 -84.4211 293° West 395 455 36,000  Level Jacksonville Center
12:44PM 29.4897 -84.5364 294° West 395 455 36,000  Level Jacksonville Center
12:45PM 29.5342 -84.6542 293° West 395 455 36,000  Level Jacksonville Center
12:46PM 29.5764 -84.7719 292° West 395 455 36,000  Level Jacksonville Center
12:47PM 29.6164 -84.8872 292° West 395 455 36,000  Level Jacksonville Center
12:48PM 29.6603 -85.0031 294° West 395 455 36,000  Level Jacksonville Center
12:49PM 29.6981 -85.1161 291° West 395 455 36,000  Level Jacksonville Center
12:50PM 29.7419 -85.2344 293° West 395 455 36,000  Level Jacksonville Center
12:51PM 29.7836 -85.3503 293° West 395 455 36,000  Level Jacksonville Center
12:52PM 29.8250 -85.4686 292° West 395 455 36,000  Level Jacksonville Center
12:53PM 29.8683 -85.5942 292° West 395 455 36,000  Level Jacksonville Center
12:54PM 29.9094 -85.7175 291° West 401 461 36,000  Level Jacksonville Center
12:55PM 29.9528 -85.8339 293° West 401 461 36,000  Level Jacksonville Center
12:56PM 29.9939 -85.9478 293° West 394 453 36,000  Level Jacksonville Center
12:57PM 30.0372 -86.0644 293° West 394 453 36,000  Level Jacksonville Center
12:58PM 30.0758 -86.1808 291° West 394 453 36,000  Level Jacksonville Center
12:59PM 30.1186 -86.3000 293° West 394 453 36,000  Level Jacksonville Center
01:00PM 30.1572 -86.4167 291° West 394 453 36,000  Level Jacksonville Center
01:01PM 30.2000 -86.5336 293° West 394 453 36,000  Level Jacksonville Center
01:02PM 30.2406 -86.6481 292° West 394 453 36,000  Level Jacksonville Center
01:03PM 30.2786 -86.7650 291° West 394 453 36,000  Level Jacksonville Center
01:04PM 30.3189 -86.8819 292° West 394 453 36,000  Level Jacksonville Center
01:05PM 30.3553 -86.9847 292° West 394 453 36,000  Level Jacksonville Center
01:06PM 30.3931 -87.1042 290° West 394 453 36,000  Level Jacksonville Center
01:07PM 30.4331 -87.2192 292° West 394 453 36,000  Level Jacksonville Center
01:08PM 30.4728 -87.3414 291° West 394 453 36,000  Level Jacksonville Center
01:09PM 30.5372 -87.5303 292° West 394 453 36,000  Level Houston Center
01:10PM 30.5758 -87.6489 291° West 394 453 36,000  Level Houston Center
01:11PM 30.6147 -87.7667 291° West 393 452 36,000  Level Houston Center
01:12PM 30.6547 -87.8847 292° West 392 451 36,000 -300 Level Houston Center
01:13PM 30.6972 -88.0200 290° West 393 452 35,400 -900 Descending Houston Center
01:14PM 30.7367 -88.1383 291° West 394 453 34,200 -720 Descending Houston Center
01:15PM 30.7742 -88.2558 290° West 390 449 34,000 -120 Descending Houston Center
01:16PM 30.8136 -88.3736 291° West 393 452 34,000  Level Houston Center
01:17PM 30.8597 -88.5158 291° West 393 452 34,000  Level Houston Center
01:18PM 30.8953 -88.6264 291° West 392 451 34,000  Level Houston Center
01:19PM 30.9342 -88.7467 291° West 395 455 34,000  Level Houston Center
01:21PM 30.9722 -88.8667 290° West 397 457 34,000  Level Houston Center
01:22PM 31.0136 -88.9906 291° West 397 457 34,000  Level Houston Center
01:23PM 31.0511 -89.1086 290° West 392 451 34,000  Level Houston Center
01:24PM 31.0975 -89.2525 291° West 397 457 34,000  Level Houston Center
01:25PM 31.1358 -89.3719 291° West 396 456 34,000  Level Houston Center
01:26PM 31.1731 -89.4894 290° West 390 449 34,000  Level Houston Center
01:27PM 31.2106 -89.6086 290° West 392 451 34,000  Level Houston Center
01:28PM 31.2475 -89.7275 290° West 391 450 34,000  Level Houston Center
01:29PM 31.2844 -89.8472 290° West 393 452 34,000  Level Houston Center
01:30PM 31.3286 -89.9892 290° West 390 449 34,000  Level Houston Center
01:31PM 31.3650 -90.1078 290° West 389 448 34,000  Level Houston Center
01:32PM 31.4022 -90.2275 290° West 391 450 34,000  Level Houston Center
01:33PM 31.4394 -90.3464 290° West 391 450 34,000  Level Houston Center
01:34PM 31.4753 -90.4658 289° West 391 450 34,000  Level Houston Center
01:35PM 31.5114 -90.5853 290° West 391 450 34,000  Level Houston Center
01:36PM 31.5492 -90.7064 290° West 394 453 34,000  Level Houston Center
01:37PM 31.5922 -90.8506 289° West 392 451 34,000  Level Houston Center
01:38PM 31.6289 -90.9706 290° West 393 452 34,000  Level Houston Center
01:39PM 31.6647 -91.0919 289° West 395 455 34,000  Level Houston Center
01:40PM 31.7031 -91.2228 289° West 390 449 34,000  Level Houston Center
01:41PM 31.7397 -91.3444 290° West 395 455 34,000  Level Houston Center
01:42PM 31.7750 -91.4642 289° West 391 450 34,000  Level Houston Center
01:43PM 31.8103 -91.5839 289° West 391 450 34,000 -420 Level Houston Center
01:44PM 31.8464 -91.7044 289° West 392 451 33,200 -1,500 Descending Houston Center
01:45PM 31.8811 -91.8267 289° West 394 453 31,000 -2,100 Descending Houston Center
01:46PM 31.9172 -91.9453 290° West 390 449 29,000 -1,980 Descending Houston Center
01:47PM 31.9567 -92.0861 288° West 382 440 27,000 -1,860 Descending Houston Center
01:48PM 31.9917 -92.2036 289° West 381 438 25,300 -1,680 Descending Houston Center
01:49PM 32.0244 -92.3233 288° West 384 442 23,600 -1,680 Descending Houston Center
01:50PM 32.0589 -92.4431 289° West 389 448 21,900 -1,680 Descending Houston Center
01:51PM 32.0933 -92.5631 289° West 389 448 20,200 -1,680 Descending Houston Center
01:52PM 32.1264 -92.6781 289° West 379 436 18,500 -1,620 Descending Houston Center
01:53PM 32.1572 -92.7856 289° West 363 418 16,900 -1,980 Descending Houston Center
01:54PM 32.1931 -92.9153 288° West 352 405 14,500 -1,860 Descending Houston Center
01:55PM 32.2222 -93.0169 289° West 337 388 13,100 -1,080 Descending Houston Center
01:56PM 32.2483 -93.1092 289° West 305 351 12,300 -1,320 Descending Houston Center
01:57PM 32.2731 -93.1997 288° West 296 341 10,500 -1,560 Descending Houston Center
01:59PM 32.3222 -93.2750 308° West 292 336 9,200 -1,620 Descending Houston Center
02:00PM 32.3489 -93.3544 292° West 268 308 7,200 -2,100 Descending Houston Center
02:01PM 32.3797 -93.4386 293° West 273 314 5,000 -1,080 Descending Houston Center
02:02PM 32.4381 -93.5050 316° Northwest 251 289 5,000  Level Houston Center
02:03PM 32.4886 -93.5689 313° West 247 284 5,000  Level Fort Worth Center
02:03PM 32.4956 -93.5833 300° West 247 284 5,000  Level Fort Worth Center
02:04PM 32.4822 -93.6283 251° West 201 231 5,000  Level Fort Worth Center
02:04PM 32.4719 -93.6336 203° Southwest 224 258 5,000 -300 Level Fort Worth Center
02:05PM 32.4244 -93.6503 196° South 176 203 4,700 -540 Descending Fort Worth Center
02:05PM 32.4081 -93.6583 203° Southwest 237 273 4,500 -1,740 Descending Fort Worth Center
02:06PM 32.3603 -93.6753 197° South 205 236 3,000 -1,800 Descending Fort Worth Center
02:06PM 32.3500 -93.6806 203° Southwest 215 247 2,700 -1,020 Descending Fort Worth Center
02:07PM 32.3258 -93.7086 224° Southwest 200 230 2,000 -720 Descending Fort Worth Center
02:07PM 32.3283 -93.7233 281° West 180 207 2,000 -120 Level Fort Worth Center
02:08PM 32.3650 -93.7561 323° Northwest 120 138 1,900 -240 Descending Fort Worth Center
02:08PM 32.3692 -93.7633 304° West 200 230 1,800 -840 Descending Fort Worth Center
02:09PM 32.3992 -93.7867 327° Northwest 158 182 1,100 -900 Descending Fort Worth Center
02:09PM 32.4058 -93.7964 309° West 145 167 900 -1,200 Descending Fort Worth Center